Time;durP1;ratioP1;P1;durP2;ratioP2;P2;SDS_P1;SDS_P2;PMS_P1;PMS_P2;Temp;Humidity;BMP_temperature;BMP_pressure;BME280_temperature;BME280_humidity;BME280_pressure;Samples;Min_cycle;Max_cycle;Signal;HPM_P1;HPM_P2
2024/04/02 00:01:29;;;;;;;2.80;0.38;;;13.60;99.90;;;;;;4815891;29;20138;-94
2024/04/02 00:04:13;;;;;;;2.28;0.75;;;13.50;99.90;;;;;;4803711;29;20046;-93
2024/04/02 00:06:39;;;;;;;2.15;0.00;;;13.40;99.90;;;;;;4826069;29;20106;-92
2024/04/02 00:09:13;;;;;;;1.75;0.10;;;13.40;99.90;;;;;;4813071;29;20038;-95
2024/04/02 00:11:40;;;;;;;1.42;0.10;;;13.30;99.90;;;;;;4812632;29;20121;-94
2024/04/02 00:14:18;;;;;;;2.47;0.00;;;13.30;99.90;;;;;;4774328;30;20051;-96
2024/04/02 00:16:54;;;;;;;0.45;0.13;;;13.40;99.90;;;;;;4774437;30;20635;-96
2024/04/02 00:19:30;;;;;;;1.23;0.00;;;13.30;99.90;;;;;;4759362;30;20047;-92
2024/04/02 00:21:58;;;;;;;1.65;0.03;;;13.40;99.90;;;;;;4767852;30;20086;-91
2024/04/02 00:24:32;;;;;;;0.28;0.00;;;13.20;99.90;;;;;;4770008;30;20120;-96
2024/04/02 00:27:01;;;;;;;2.25;0.05;;;13.10;99.90;;;;;;4769967;30;20731;-92
2024/04/02 00:29:36;;;;;;;2.92;0.00;;;13.00;99.90;;;;;;4770916;30;20061;-96
2024/04/02 00:32:05;;;;;;;0.85;0.00;;;13.20;99.90;;;;;;4765352;30;20040;-95
2024/04/02 00:34:36;;;;;;;0.10;0.00;;;12.90;99.90;;;;;;4760824;30;20059;-95
2024/04/02 00:37:03;;;;;;;0.30;0.00;;;12.80;99.90;;;;;;4764847;30;20047;-93
2024/04/02 00:39:31;;;;;;;3.42;0.00;;;12.70;99.90;;;;;;4753757;30;20055;-92
2024/04/02 00:41:57;;;;;;;0.10;0.00;;;12.50;99.90;;;;;;4762804;30;20071;-89
2024/04/02 00:44:25;;;;;;;0.25;0.00;;;12.60;99.90;;;;;;4770799;29;20114;-96
2024/04/02 00:46:52;;;;;;;0.10;0.00;;;12.80;99.90;;;;;;4795418;29;20054;-96
2024/04/02 00:49:20;;;;;;;0.10;0.00;;;12.80;99.90;;;;;;4806575;29;20080;-94
2024/04/02 00:51:48;;;;;;;0.15;0.00;;;12.80;99.90;;;;;;4816587;29;20034;-95
2024/04/02 00:54:17;;;;;;;1.08;0.00;;;13.00;99.90;;;;;;4818309;29;20107;-92
2024/04/02 00:57:08;;;;;;;0.93;0.00;;;12.80;99.90;;;;;;4838073;29;20062;-96
2024/04/02 00:59:36;;;;;;;1.35;0.00;;;12.70;99.90;;;;;;4766921;30;20050;-91
2024/04/02 01:02:04;;;;;;;0.20;0.00;;;12.60;99.90;;;;;;4763334;30;20054;-95
2024/04/02 01:04:41;;;;;;;0.35;0.00;;;12.70;99.90;;;;;;4773068;29;20066;-96
2024/04/02 01:07:13;;;;;;;0.15;0.00;;;12.60;99.90;;;;;;4753572;30;20093;-93
2024/04/02 01:09:42;;;;;;;0.45;0.00;;;12.50;99.90;;;;;;4785307;30;20063;-93
2024/04/02 01:12:09;;;;;;;0.05;0.00;;;12.50;99.90;;;;;;4766888;30;20048;-93
2024/04/02 01:14:41;;;;;;;0.00;0.00;;;12.50;99.90;;;;;;4768032;30;20060;-91
2024/04/02 01:17:08;;;;;;;1.25;0.00;;;12.60;99.90;;;;;;4790576;29;20079;-96
2024/04/02 01:19:38;;;;;;;0.22;0.00;;;12.30;99.90;;;;;;4773696;30;20154;-95
2024/04/02 01:22:14;;;;;;;2.72;0.00;;;12.10;99.90;;;;;;4762645;30;20511;-94
2024/04/02 01:24:50;;;;;;;0.10;0.00;;;12.00;99.90;;;;;;4738307;30;20056;-95
2024/04/02 01:27:21;;;;;;;0.20;0.00;;;12.00;99.90;;;;;;4760584;30;20074;-96
2024/04/02 01:29:51;;;;;;;0.20;0.00;;;12.10;99.90;;;;;;4780980;29;20046;-93
2024/04/02 01:32:21;;;;;;;0.20;0.03;;;12.00;99.90;;;;;;4817868;29;20057;-94
2024/04/02 01:34:48;;;;;;;0.13;0.00;;;12.10;99.90;;;;;;4808882;29;20114;-89
2024/04/02 01:37:15;;;;;;;0.63;0.00;;;11.70;99.90;;;;;;4811294;29;20046;-96
2024/04/02 01:39:46;;;;;;;0.75;0.00;;;11.90;99.90;;;;;;4812676;29;20477;-95
2024/04/02 01:42:17;;;;;;;0.10;0.00;;;11.80;99.90;;;;;;4822508;29;20110;-95
2024/04/02 01:48:24;;;;;;;0.88;0.00;;;13.10;99.90;;;;;;4815839;29;20065;-80
2024/04/02 01:50:51;;;;;;;1.08;0.00;;;11.70;99.90;;;;;;4822564;29;20057;-77
2024/04/02 01:53:19;;;;;;;0.13;0.00;;;13.50;99.90;;;;;;4810631;29;20175;-81
2024/04/02 01:55:48;;;;;;;0.73;0.00;;;12.40;99.90;;;;;;4808814;29;20061;-80
2024/04/02 01:58:16;;;;;;;0.28;0.00;;;12.50;99.90;;;;;;4833549;29;20084;-78
2024/04/02 02:00:42;;;;;;;0.43;0.00;;;12.50;99.90;;;;;;4815901;29;20141;-78
2024/04/02 02:03:10;;;;;;;0.40;0.00;;;12.00;99.90;;;;;;4815687;29;20046;-81
2024/04/02 02:05:38;;;;;;;0.00;0.00;;;12.40;99.90;;;;;;4816674;29;20047;-80
2024/04/02 02:08:07;;;;;;;0.05;0.00;;;12.10;99.90;;;;;;4818445;29;20057;-78
2024/04/02 02:10:33;;;;;;;0.05;0.00;;;12.10;99.90;;;;;;4810921;29;20034;-76
2024/04/02 02:13:04;;;;;;;0.10;0.00;;;12.10;99.90;;;;;;4812431;29;20052;-75
2024/04/02 02:15:31;;;;;;;0.10;0.00;;;11.90;99.90;;;;;;4811086;29;20046;-75
2024/04/02 02:17:58;;;;;;;1.17;0.10;;;11.90;99.90;;;;;;4814921;29;20045;-76
2024/04/02 02:20:25;;;;;;;0.10;0.00;;;11.70;99.90;;;;;;4810083;29;20061;-77
2024/04/02 02:22:54;;;;;;;0.90;0.00;;;11.70;99.90;;;;;;4841518;29;20069;-74
2024/04/02 02:25:21;;;;;;;0.20;0.00;;;11.70;99.90;;;;;;4822412;29;20038;-75
2024/04/02 02:27:48;;;;;;;0.10;0.00;;;11.80;99.90;;;;;;4817524;29;20102;-77
2024/04/02 02:30:15;;;;;;;0.75;0.00;;;11.70;99.90;;;;;;4826648;29;20538;-78
2024/04/02 02:32:42;;;;;;;0.47;0.10;;;11.80;99.90;;;;;;4826818;29;20039;-78
2024/04/02 02:35:09;;;;;;;0.75;0.00;;;11.70;99.90;;;;;;4829564;29;20440;-76
2024/04/02 02:37:36;;;;;;;0.10;0.00;;;11.60;99.90;;;;;;4810245;29;20119;-78
2024/04/02 02:40:07;;;;;;;0.05;0.00;;;11.70;99.90;;;;;;4826232;29;20584;-77
2024/04/02 02:42:34;;;;;;;0.43;0.10;;;11.60;99.90;;;;;;4806597;29;20083;-77
2024/04/02 02:45:01;;;;;;;1.15;0.00;;;11.50;99.90;;;;;;4811712;29;20052;-76
2024/04/02 02:47:29;;;;;;;1.20;0.00;;;11.40;99.90;;;;;;4811787;29;20082;-76
2024/04/02 02:49:55;;;;;;;0.57;0.08;;;11.60;99.90;;;;;;4857570;29;20081;-77
2024/04/02 02:52:23;;;;;;;0.17;0.00;;;11.50;99.90;;;;;;4839041;29;20061;-77
2024/04/02 02:54:49;;;;;;;0.40;0.10;;;11.50;99.90;;;;;;4827721;29;20069;-78
2024/04/02 02:57:19;;;;;;;0.40;0.08;;;11.60;99.90;;;;;;4821422;29;20138;-79
2024/04/02 02:59:46;;;;;;;0.30;0.10;;;11.70;99.90;;;;;;4830319;29;20077;-78
2024/04/02 03:02:13;;;;;;;1.45;0.20;;;11.50;99.90;;;;;;4844483;29;20037;-78
2024/04/02 03:04:40;;;;;;;0.30;0.10;;;11.70;99.90;;;;;;4836060;29;20065;-78
2024/04/02 03:07:08;;;;;;;1.08;0.10;;;11.60;99.90;;;;;;4831525;29;20398;-77
2024/04/02 03:09:36;;;;;;;0.40;0.10;;;11.50;99.90;;;;;;4829959;29;20163;-77
2024/04/02 03:12:05;;;;;;;0.30;0.10;;;11.30;99.90;;;;;;4827966;29;20469;-78
2024/04/02 03:14:33;;;;;;;0.32;0.10;;;11.10;99.90;;;;;;4845862;29;20050;-80
2024/04/02 03:17:01;;;;;;;0.80;0.10;;;13.00;99.90;;;;;;4839631;29;20042;-79
2024/04/02 03:19:28;;;;;;;0.63;0.10;;;11.10;99.90;;;;;;4840705;29;20058;-81
2024/04/02 03:22:00;;;;;;;0.20;0.10;;;11.80;99.90;;;;;;4844529;29;20045;-80
2024/04/02 03:24:26;;;;;;;1.90;0.10;;;12.20;99.90;;;;;;4839421;29;20080;-79
2024/04/02 03:26:54;;;;;;;0.30;0.10;;;11.20;99.90;;;;;;4854588;29;20127;-81
2024/04/02 03:29:21;;;;;;;0.82;0.10;;;9.30;99.90;;;;;;4834481;29;20077;-80
2024/04/02 03:31:50;;;;;;;0.30;0.10;;;11.40;99.90;;;;;;4851240;29;20049;-80
2024/04/02 03:34:17;;;;;;;0.22;0.10;;;11.20;99.90;;;;;;4837441;29;20088;-79
2024/04/02 03:36:45;;;;;;;1.80;0.00;;;11.10;99.90;;;;;;4831925;29;20040;-78
2024/04/02 03:39:12;;;;;;;0.43;0.10;;;10.90;99.90;;;;;;4840245;29;20077;-79
2024/04/02 03:41:45;;;;;;;0.20;0.10;;;10.70;99.90;;;;;;4852465;29;20057;-78
2024/04/02 03:44:13;;;;;;;0.10;0.00;;;11.30;99.90;;;;;;4854208;29;20057;-78
2024/04/02 03:46:41;;;;;;;0.68;0.00;;;10.60;99.90;;;;;;4830408;29;20136;-80
2024/04/02 03:49:09;;;;;;;0.43;0.10;;;11.30;99.90;;;;;;4831228;29;20053;-79
2024/04/02 03:51:37;;;;;;;0.10;0.00;;;10.90;99.90;;;;;;4836343;29;20053;-79
2024/04/02 03:54:03;;;;;;;0.00;0.00;;;11.20;99.90;;;;;;4842852;29;20109;-79
2024/04/02 03:56:33;;;;;;;0.50;0.00;;;11.30;99.90;;;;;;4834079;29;20061;-79
2024/04/02 03:59:00;;;;;;;0.25;0.10;;;9.80;99.90;;;;;;4856414;29;20057;-81
2024/04/02 04:01:27;;;;;;;0.20;0.00;;;11.20;99.90;;;;;;4853334;29;20047;-79
2024/04/02 04:03:54;;;;;;;1.35;0.00;;;11.00;99.90;;;;;;4842412;29;20148;-79
2024/04/02 04:06:23;;;;;;;0.75;0.00;;;11.00;99.90;;;;;;4854201;29;20113;-81
2024/04/02 04:08:50;;;;;;;0.28;0.00;;;10.80;99.90;;;;;;4835315;29;20073;-83
2024/04/02 04:11:18;;;;;;;0.47;0.10;;;11.50;99.90;;;;;;4837194;29;20041;-80
2024/04/02 04:13:44;;;;;;;0.38;0.10;;;11.30;99.90;;;;;;4858049;29;20049;-81
2024/04/02 04:16:12;;;;;;;1.05;0.10;;;12.00;99.90;;;;;;4846967;29;20108;-78
2024/04/02 04:18:39;;;;;;;3.85;0.57;;;11.30;99.90;;;;;;4839558;29;20084;-80
2024/04/02 04:21:07;;;;;;;1.65;0.20;;;11.30;99.90;;;;;;4848371;29;20090;-81
2024/04/02 04:23:39;;;;;;;0.95;0.20;;;11.60;99.90;;;;;;4842132;29;20049;-82
2024/04/02 04:26:07;;;;;;;0.50;0.20;;;11.50;99.90;;;;;;4820428;29;20045;-80
2024/04/02 04:28:34;;;;;;;0.77;0.20;;;11.50;99.90;;;;;;4849739;29;20045;-79
2024/04/02 04:31:03;;;;;;;0.73;0.20;;;11.30;99.90;;;;;;4829677;29;20048;-77
2024/04/02 04:33:30;;;;;;;1.65;0.30;;;11.40;99.90;;;;;;4821842;29;20053;-77
2024/04/02 04:35:58;;;;;;;0.55;0.25;;;11.10;99.90;;;;;;4822919;29;20045;-77
2024/04/02 04:38:26;;;;;;;0.50;0.30;;;11.20;99.90;;;;;;4844084;29;20053;-77
2024/04/02 04:40:54;;;;;;;0.98;0.35;;;11.10;99.90;;;;;;4825357;29;20425;-76
2024/04/02 04:43:21;;;;;;;0.80;0.30;;;11.00;99.90;;;;;;4833726;29;20052;-77
2024/04/02 04:45:53;;;;;;;0.52;0.20;;;11.10;99.90;;;;;;4829734;29;20038;-78
2024/04/02 04:48:20;;;;;;;1.10;0.30;;;11.20;99.90;;;;;;4845748;29;20148;-74
2024/04/02 04:50:57;;;;;;;2.20;0.47;;;11.10;99.90;;;;;;4838729;29;20632;-77
2024/04/02 04:53:24;;;;;;;0.98;0.30;;;10.90;99.90;;;;;;4826111;29;20163;-75
2024/04/02 04:55:54;;;;;;;0.60;0.30;;;10.70;99.90;;;;;;4843931;29;20065;-78
2024/04/02 04:58:23;;;;;;;1.02;0.30;;;10.90;99.90;;;;;;4844154;29;20098;-76
2024/04/02 05:00:50;;;;;;;0.82;0.32;;;11.00;99.90;;;;;;4837665;29;20053;-76
2024/04/02 05:03:17;;;;;;;1.15;0.30;;;11.00;99.90;;;;;;4843016;29;20140;-79
2024/04/02 05:05:44;;;;;;;0.88;0.30;;;11.00;99.90;;;;;;4828341;29;20057;-77
2024/04/02 05:08:25;;;;;;;0.63;0.20;;;11.00;99.90;;;;;;4821239;29;20076;-76
2024/04/02 05:10:53;;;;;;;1.27;0.30;;;10.90;99.90;;;;;;4840978;29;20111;-77
2024/04/02 05:13:24;;;;;;;1.63;0.25;;;10.90;99.90;;;;;;4826930;29;20068;-74
2024/04/02 05:15:51;;;;;;;4.53;0.40;;;11.00;99.90;;;;;;4831360;29;20049;-77
2024/04/02 05:18:19;;;;;;;1.92;0.40;;;10.80;99.90;;;;;;4823365;29;20550;-76
2024/04/02 05:20:45;;;;;;;2.08;0.30;;;10.90;99.90;;;;;;4844649;29;20525;-77
2024/04/02 05:23:13;;;;;;;0.55;0.20;;;10.80;99.90;;;;;;4834332;29;20053;-79
2024/04/02 05:25:40;;;;;;;0.93;0.30;;;10.90;99.90;;;;;;4829194;29;20042;-74
2024/04/02 05:28:08;;;;;;;1.63;0.10;;;10.90;99.90;;;;;;4831982;29;20056;-77
2024/04/02 05:30:36;;;;;;;2.50;0.20;;;11.00;99.90;;;;;;4846081;29;20061;-76
2024/04/02 05:33:06;;;;;;;0.57;0.10;;;10.60;99.90;;;;;;4848370;29;20053;-79
2024/04/02 05:35:34;;;;;;;0.20;0.10;;;10.80;99.90;;;;;;4848801;29;20053;-76
2024/04/02 05:38:04;;;;;;;0.20;0.10;;;10.90;99.90;;;;;;4836472;29;20038;-76
2024/04/02 05:40:34;;;;;;;0.82;0.20;;;10.80;99.90;;;;;;4933995;23;20522;-82
2024/04/02 05:43:02;;;;;;;1.15;0.10;;;11.10;99.90;;;;;;4875495;24;20084;-80
2024/04/02 05:45:28;;;;;;;0.77;0.30;;;10.70;99.90;;;;;;5005424;24;20054;-89
2024/04/02 05:47:56;;;;;;;0.90;0.20;;;10.60;99.90;;;;;;4836240;29;20080;-89
2024/04/02 05:50:24;;;;;;;0.47;0.10;;;10.70;99.90;;;;;;4837941;29;20137;-91
2024/04/02 05:52:52;;;;;;;0.32;0.20;;;10.60;99.90;;;;;;4843228;29;20578;-88
2024/04/02 05:55:18;;;;;;;0.40;0.15;;;10.60;99.90;;;;;;4832540;29;20045;-89
2024/04/02 05:57:46;;;;;;;1.50;0.20;;;10.50;99.90;;;;;;4844448;29;20485;-90
2024/04/02 06:00:13;;;;;;;1.27;0.15;;;10.60;99.90;;;;;;4821347;29;20741;-87
2024/04/02 06:02:42;;;;;;;1.30;0.90;;;10.60;99.90;;;;;;4833994;29;20114;-91
2024/04/02 06:05:09;;;;;;;3.08;1.50;;;10.60;99.90;;;;;;4843393;29;20060;-86
2024/04/02 06:07:39;;;;;;;1.15;0.20;;;10.50;99.90;;;;;;4843684;29;20556;-90
2024/04/02 06:10:06;;;;;;;1.48;0.10;;;10.50;99.90;;;;;;4855801;29;20498;-90
2024/04/02 06:12:35;;;;;;;0.17;0.10;;;10.40;99.90;;;;;;4838158;29;20039;-88
2024/04/02 06:15:01;;;;;;;0.40;0.20;;;10.60;99.90;;;;;;4850761;29;20060;-88
2024/04/02 06:17:29;;;;;;;0.30;0.20;;;10.60;99.90;;;;;;4854879;29;20053;-92
2024/04/02 06:19:56;;;;;;;1.02;0.20;;;10.60;99.90;;;;;;4852975;29;20072;-93
2024/04/02 06:22:28;;;;;;;0.45;0.17;;;10.70;99.90;;;;;;4843044;29;20151;-86
2024/04/02 06:24:57;;;;;;;0.40;0.10;;;10.70;99.90;;;;;;4838646;29;20052;-91
2024/04/02 06:27:25;;;;;;;0.20;0.10;;;10.70;99.90;;;;;;4822747;29;20052;-88
2024/04/02 06:29:52;;;;;;;2.20;0.77;;;10.70;99.90;;;;;;4847867;29;20535;-89
2024/04/02 06:32:21;;;;;;;1.52;0.63;;;11.00;99.90;;;;;;4836493;29;20049;-92
2024/04/02 06:34:47;;;;;;;4.63;0.20;;;11.20;99.90;;;;;;4842783;29;20114;-88
2024/04/02 06:37:15;;;;;;;0.90;0.10;;;10.80;99.90;;;;;;4864741;29;20041;-88
2024/04/02 06:39:42;;;;;;;0.40;0.10;;;11.00;99.90;;;;;;4837541;29;20197;-90
2024/04/02 06:42:11;;;;;;;2.58;0.90;;;11.00;99.90;;;;;;4842118;29;20048;-89
2024/04/02 06:44:38;;;;;;;0.75;0.20;;;11.30;99.90;;;;;;4839599;29;20100;-91
2024/04/02 06:47:05;;;;;;;2.35;0.20;;;11.30;99.90;;;;;;4839779;29;20037;-86
2024/04/02 06:49:33;;;;;;;1.25;0.20;;;11.50;99.90;;;;;;4855369;29;20141;-89
2024/04/02 06:52:00;;;;;;;0.65;0.03;;;11.70;99.90;;;;;;4847890;29;20148;-87
2024/04/02 06:54:27;;;;;;;0.98;0.40;;;11.60;99.90;;;;;;4851417;29;20524;-91
2024/04/02 06:56:55;;;;;;;0.90;0.20;;;11.80;99.90;;;;;;4833427;29;20573;-91
2024/04/02 06:59:25;;;;;;;0.70;0.20;;;11.80;99.90;;;;;;4822979;29;20053;-90
2024/04/02 07:01:51;;;;;;;1.02;0.20;;;11.80;99.90;;;;;;4841016;29;20491;-90
2024/04/02 07:04:19;;;;;;;2.08;0.32;;;11.70;99.90;;;;;;4840052;29;20044;-91
2024/04/02 07:06:46;;;;;;;0.60;0.10;;;11.80;99.90;;;;;;4827868;29;20052;-91
2024/04/02 07:09:14;;;;;;;0.60;0.20;;;11.90;99.90;;;;;;4836637;29;20049;-90
2024/04/02 07:11:40;;;;;;;0.95;0.20;;;11.90;99.90;;;;;;4840402;29;20091;-90
2024/04/02 07:14:08;;;;;;;1.90;0.50;;;11.90;99.90;;;;;;4838976;29;20037;-90
2024/04/02 07:16:36;;;;;;;1.58;0.50;;;11.90;99.90;;;;;;4839291;29;20044;-90
2024/04/02 07:19:04;;;;;;;2.42;0.30;;;12.00;99.90;;;;;;4844901;29;20080;-88
2024/04/02 07:21:30;;;;;;;5.53;1.45;;;12.20;99.90;;;;;;4843938;29;20052;-91
2024/04/02 07:23:58;;;;;;;1.00;0.10;;;12.30;99.90;;;;;;4840830;29;20416;-90
2024/04/02 07:26:24;;;;;;;3.17;0.60;;;12.20;99.90;;;;;;4837137;29;20140;-90
2024/04/02 07:28:52;;;;;;;1.30;0.20;;;12.30;99.90;;;;;;4842245;29;20140;-91
2024/04/02 07:31:24;;;;;;;2.28;0.57;;;12.50;99.90;;;;;;4832539;29;20120;-88
2024/04/02 07:33:53;;;;;;;0.80;0.10;;;12.40;99.90;;;;;;4847797;29;20132;-92
2024/04/02 07:36:20;;;;;;;0.22;0.00;;;12.40;99.90;;;;;;4848206;29;20136;-88
2024/04/02 07:38:48;;;;;;;1.33;0.00;;;11.80;99.90;;;;;;4841738;29;20160;-92
2024/04/02 07:41:14;;;;;;;0.52;0.10;;;12.30;99.90;;;;;;4839397;29;20100;-90
2024/04/02 07:43:42;;;;;;;1.17;0.05;;;12.30;99.90;;;;;;4835571;29;20044;-93
2024/04/02 07:46:09;;;;;;;0.30;0.00;;;12.40;99.90;;;;;;4847510;29;20136;-92
2024/04/02 07:48:37;;;;;;;1.17;0.00;;;12.50;99.90;;;;;;4841678;29;20050;-91
2024/04/02 07:51:11;;;;;;;0.55;0.05;;;12.60;99.90;;;;;;4840440;29;20482;-90
2024/04/02 07:53:39;;;;;;;0.40;0.08;;;12.80;99.90;;;;;;4837374;29;20149;-90
2024/04/02 07:56:06;;;;;;;0.20;0.10;;;12.70;99.90;;;;;;4829371;29;20053;-91
2024/04/02 07:58:34;;;;;;;0.60;0.30;;;12.80;99.90;;;;;;4834102;29;20045;-92
2024/04/02 08:01:00;;;;;;;0.20;0.10;;;12.70;99.90;;;;;;4837617;29;20140;-88
2024/04/02 08:03:28;;;;;;;0.93;0.20;;;12.60;99.90;;;;;;4843393;29;20051;-92
2024/04/02 08:05:58;;;;;;;2.70;0.20;;;12.60;99.90;;;;;;4843033;29;20076;-90
2024/04/02 08:08:27;;;;;;;2.15;0.45;;;12.60;99.90;;;;;;4838506;29;20561;-87
2024/04/02 08:10:54;;;;;;;0.30;0.10;;;12.80;99.90;;;;;;4853695;29;20045;-91
2024/04/02 08:13:22;;;;;;;0.60;0.10;;;12.80;99.90;;;;;;4843021;29;20049;-88
2024/04/02 08:15:48;;;;;;;0.30;0.00;;;12.80;99.90;;;;;;4840559;29;20052;-88
2024/04/02 08:18:16;;;;;;;1.33;0.20;;;12.80;99.90;;;;;;4840034;29;20053;-91
2024/04/02 08:20:43;;;;;;;0.77;0.10;;;12.80;99.90;;;;;;4838691;29;20144;-93
2024/04/02 08:23:11;;;;;;;0.63;0.10;;;12.80;99.90;;;;;;4838531;29;20490;-91
2024/04/02 08:25:41;;;;;;;0.73;0.10;;;12.80;99.90;;;;;;4855636;29;20132;-92
2024/04/02 08:28:09;;;;;;;0.65;0.10;;;12.80;99.90;;;;;;4829094;29;20395;-86
2024/04/02 08:30:36;;;;;;;1.17;0.10;;;12.80;99.90;;;;;;4840727;29;20041;-91
2024/04/02 08:33:03;;;;;;;1.23;0.10;;;12.70;99.90;;;;;;4845470;29;20140;-90
2024/04/02 08:35:30;;;;;;;0.35;0.10;;;12.90;99.90;;;;;;4841786;29;20080;-88
2024/04/02 08:37:58;;;;;;;2.60;0.20;;;12.80;99.90;;;;;;4846996;29;20498;-91
2024/04/02 08:40:31;;;;;;;0.40;0.10;;;12.80;99.90;;;;;;4826603;29;20099;-87
2024/04/02 08:43:06;;;;;;;0.20;0.03;;;13.00;99.90;;;;;;4854592;29;20096;-91
2024/04/02 08:45:33;;;;;;;1.88;0.10;;;13.00;99.90;;;;;;4834935;29;20049;-90
2024/04/02 08:48:00;;;;;;;0.80;0.10;;;12.90;99.90;;;;;;4837662;29;20050;-91
2024/04/02 08:50:27;;;;;;;0.63;0.10;;;13.00;99.90;;;;;;4846134;29;20042;-90
2024/04/02 08:52:55;;;;;;;0.47;0.20;;;13.00;99.90;;;;;;4847739;29;20074;-87
2024/04/02 08:55:22;;;;;;;0.95;0.15;;;13.20;99.90;;;;;;4860788;29;20404;-89
2024/04/02 08:57:52;;;;;;;0.30;0.10;;;13.30;99.90;;;;;;4841938;29;20043;-89
2024/04/02 09:00:23;;;;;;;0.32;0.03;;;13.40;99.90;;;;;;4836968;29;20135;-92
2024/04/02 09:02:53;;;;;;;0.25;0.10;;;13.30;99.90;;;;;;4842240;29;20045;-88
2024/04/02 09:05:20;;;;;;;0.60;0.10;;;13.50;99.90;;;;;;4856126;29;20458;-89
2024/04/02 09:07:48;;;;;;;1.40;0.10;;;13.50;99.90;;;;;;4843305;29;20638;-89
2024/04/02 09:10:16;;;;;;;0.90;0.13;;;13.50;99.90;;;;;;4859983;29;20049;-91
2024/04/02 09:12:44;;;;;;;0.90;0.20;;;13.60;99.90;;;;;;4842965;29;20105;-90
2024/04/02 09:15:11;;;;;;;0.30;0.10;;;13.60;99.90;;;;;;4860912;29;20193;-89
2024/04/02 09:17:40;;;;;;;1.02;0.05;;;14.00;99.90;;;;;;4844672;29;20051;-90
2024/04/02 09:20:08;;;;;;;0.32;0.10;;;13.80;99.90;;;;;;4852263;29;20041;-90
2024/04/02 09:22:35;;;;;;;0.47;0.10;;;14.00;99.90;;;;;;4820991;29;20041;-88
2024/04/02 09:25:03;;;;;;;0.43;0.00;;;14.00;99.90;;;;;;4845406;29;20453;-89
2024/04/02 09:27:31;;;;;;;0.98;0.05;;;14.10;99.90;;;;;;4839319;29;20037;-91
2024/04/02 09:29:58;;;;;;;1.20;0.10;;;14.40;99.90;;;;;;4841204;29;20079;-87
2024/04/02 09:32:28;;;;;;;1.60;0.10;;;14.30;99.90;;;;;;4856987;29;20101;-89
2024/04/02 09:34:57;;;;;;;0.82;0.10;;;14.70;99.60;;;;;;4839356;29;20048;-89
2024/04/02 09:37:34;;;;;;;1.45;0.10;;;14.40;98.10;;;;;;4838513;29;20045;-89
2024/04/02 09:40:02;;;;;;;0.68;0.00;;;14.30;98.50;;;;;;4843925;29;20049;-89
2024/04/02 09:42:31;;;;;;;0.20;0.00;;;14.30;98.60;;;;;;4853979;29;20128;-90
2024/04/02 09:44:59;;;;;;;0.35;0.10;;;14.40;99.10;;;;;;4858660;29;20049;-89
2024/04/02 09:47:28;;;;;;;1.33;0.95;;;14.50;98.60;;;;;;4847793;29;20091;-86
2024/04/02 09:49:56;;;;;;;1.27;0.20;;;14.60;98.20;;;;;;4847171;29;20048;-88
2024/04/02 09:52:25;;;;;;;1.08;0.10;;;14.50;98.80;;;;;;4846308;29;20041;-87
2024/04/02 09:54:55;;;;;;;0.60;0.20;;;14.50;98.30;;;;;;4837883;29;20492;-87
2024/04/02 09:57:23;;;;;;;0.75;0.10;;;14.70;97.40;;;;;;4838674;29;20054;-89
2024/04/02 09:59:49;;;;;;;1.80;0.10;;;14.70;97.70;;;;;;4838066;29;20160;-87
2024/04/02 10:02:22;;;;;;;1.23;0.50;;;14.90;96.30;;;;;;4843339;29;20063;-89
2024/04/02 10:04:51;;;;;;;0.63;0.20;;;15.00;95.50;;;;;;4841142;29;20041;-88
2024/04/02 10:07:28;;;;;;;1.23;0.30;;;15.20;95.80;;;;;;4842111;29;20038;-88
2024/04/02 10:09:56;;;;;;;0.30;0.05;;;14.90;94.70;;;;;;4841495;29;20037;-88
2024/04/02 10:12:28;;;;;;;1.02;0.10;;;14.90;96.20;;;;;;4867554;29;20041;-88
2024/04/02 10:14:55;;;;;;;1.35;0.03;;;14.50;96.50;;;;;;4839016;29;20097;-89
2024/04/02 10:17:22;;;;;;;1.05;0.20;;;14.60;96.40;;;;;;4838830;29;20117;-87
2024/04/02 10:19:51;;;;;;;1.20;0.30;;;15.10;96.80;;;;;;4850437;29;20040;-83
2024/04/02 10:22:32;;;;;;;1.77;0.20;;;15.20;95.30;;;;;;4838857;29;20164;-88
2024/04/02 10:25:06;;;;;;;2.22;0.60;;;15.10;94.20;;;;;;4849885;29;20137;-85
2024/04/02 10:27:35;;;;;;;1.48;0.65;;;15.40;94.80;;;;;;4838962;29;20049;-86
2024/04/02 10:30:02;;;;;;;1.00;0.20;;;15.70;94.40;;;;;;4839400;29;20486;-85
2024/04/02 10:32:35;;;;;;;0.85;0.28;;;15.50;93.90;;;;;;4841908;29;20148;-87
2024/04/02 10:35:06;;;;;;;0.88;0.20;;;15.90;94.40;;;;;;4843977;29;21415;-86
2024/04/02 10:37:35;;;;;;;2.17;0.03;;;16.30;92.90;;;;;;4839443;29;20502;-84
2024/04/02 10:40:03;;;;;;;1.85;0.20;;;15.70;92.20;;;;;;4834281;29;20080;-87
2024/04/02 10:42:31;;;;;;;2.42;0.43;;;15.30;92.90;;;;;;4843794;29;20045;-84
2024/04/02 10:44:58;;;;;;;0.40;0.00;;;15.50;92.90;;;;;;4840382;29;20505;-87
2024/04/02 10:47:28;;;;;;;0.55;0.00;;;15.40;91.50;;;;;;4838519;29;20053;-83
2024/04/02 10:49:56;;;;;;;0.30;0.08;;;15.70;91.80;;;;;;4840489;29;20079;-89
2024/04/02 10:52:24;;;;;;;2.17;0.10;;;15.40;91.10;;;;;;4838641;29;20125;-84
2024/04/02 10:54:52;;;;;;;0.43;0.10;;;15.00;91.00;;;;;;4842639;29;20148;-87
2024/04/02 10:57:20;;;;;;;0.93;0.32;;;15.10;91.20;;;;;;4844368;29;20557;-84
2024/04/02 10:59:47;;;;;;;0.50;0.10;;;14.70;91.50;;;;;;4840418;29;20045;-89
2024/04/02 11:02:19;;;;;;;0.85;0.00;;;14.70;92.50;;;;;;4837519;29;20514;-88
2024/04/02 11:04:46;;;;;;;;;;;15.10;93.00;;;;;;4839565;29;20054;-88
2024/04/02 11:07:15;;;;;;;1.98;0.08;;;15.30;91.90;;;;;;4839785;29;20023;-86
2024/04/02 11:09:43;;;;;;;0.70;0.10;;;15.40;91.50;;;;;;4838253;29;20059;-85
2024/04/02 11:12:12;;;;;;;2.35;0.00;;;15.20;90.90;;;;;;4837658;29;20037;-86
2024/04/02 11:14:39;;;;;;;0.75;0.10;;;15.20;91.20;;;;;;4844742;29;20178;-88
2024/04/02 11:17:09;;;;;;;2.85;0.10;;;15.20;91.90;;;;;;4835414;29;20057;-84
2024/04/02 11:19:37;;;;;;;0.40;0.10;;;15.80;91.80;;;;;;4842295;29;20140;-85
2024/04/02 11:25:03;;;;;;;0.95;0.00;;;16.50;90.90;;;;;;4838908;29;20049;-84
2024/04/02 11:27:33;;;;;;;0.47;0.00;;;16.90;92.40;;;;;;4851154;29;20115;-87
2024/04/02 11:30:01;;;;;;;1.08;0.00;;;17.20;90.10;;;;;;4843717;29;20579;-84
2024/04/02 11:32:28;;;;;;;0.20;0.00;;;16.90;88.40;;;;;;4835767;29;20049;-85
2024/04/02 11:35:00;;;;;;;3.05;0.10;;;16.30;88.80;;;;;;4836652;29;20055;-84
2024/04/02 11:37:28;;;;;;;1.70;0.60;;;15.80;90.10;;;;;;4842629;29;20049;-82
2024/04/02 11:39:56;;;;;;;13.70;6.85;;;15.60;90.50;;;;;;4845443;29;20041;-85
2024/04/02 11:42:24;;;;;;;1.02;0.20;;;15.50;90.60;;;;;;4843251;29;20128;-84
2024/04/02 11:44:55;;;;;;;2.53;0.95;;;15.40;91.50;;;;;;4828907;29;20049;-85
2024/04/02 11:47:23;;;;;;;2.78;0.70;;;15.70;91.00;;;;;;4841012;29;20057;-87
2024/04/02 11:49:51;;;;;;;4.03;0.68;;;15.70;90.20;;;;;;4851841;29;20144;-86
2024/04/02 11:52:18;;;;;;;14.43;8.90;;;15.50;89.60;;;;;;4851224;29;20120;-91
2024/04/02 11:54:47;;;;;;;3.75;2.97;;;15.40;89.80;;;;;;4834919;29;20049;-86
2024/04/02 12:00:16;;;;;;;4.03;2.08;;;15.40;87.80;;;;;;4853066;29;20088;-86
2024/04/02 12:02:46;;;;;;;0.50;0.20;;;16.10;88.10;;;;;;4832709;29;20407;-85
2024/04/02 12:05:14;;;;;;;0.28;0.00;;;16.80;84.90;;;;;;4831247;29;20037;-83
2024/04/02 12:07:42;;;;;;;0.15;0.00;;;16.90;83.50;;;;;;4846975;29;20137;-83
2024/04/02 12:10:10;;;;;;;0.40;0.10;;;17.20;81.90;;;;;;4842743;29;20045;-82
2024/04/02 12:12:37;;;;;;;1.35;0.52;;;17.10;79.50;;;;;;4830324;29;20075;-82
2024/04/02 12:15:09;;;;;;;1.80;0.50;;;17.10;79.40;;;;;;4844719;29;20045;-89
2024/04/02 12:17:35;;;;;;;10.93;7.13;;;16.90;79.70;;;;;;4842270;29;20081;-88
2024/04/02 12:20:04;;;;;;;16.40;11.68;;;16.60;80.60;;;;;;4837483;29;20050;-88
2024/04/02 12:22:31;;;;;;;7.50;5.88;;;16.80;81.50;;;;;;4847243;29;20896;-85
2024/04/02 12:24:59;;;;;;;3.95;2.15;;;16.50;82.00;;;;;;4830028;29;20101;-84
2024/04/02 12:27:28;;;;;;;35.67;18.30;;;16.30;82.10;;;;;;4836272;29;20517;-93
2024/04/02 12:29:56;;;;;;;1.77;0.50;;;16.30;83.30;;;;;;4849299;29;20132;-90
2024/04/02 12:32:25;;;;;;;10.52;5.35;;;17.00;84.20;;;;;;4841846;29;20125;-86
2024/04/02 12:34:52;;;;;;;8.60;3.83;;;17.40;84.30;;;;;;4838751;29;20128;-82
2024/04/02 12:37:19;;;;;;;2.95;1.15;;;17.00;79.80;;;;;;4831395;29;20042;-84
2024/04/02 12:39:47;;;;;;;2.47;0.43;;;16.60;79.00;;;;;;4839897;29;20041;-86
2024/04/02 12:42:16;;;;;;;1.00;0.20;;;16.40;78.60;;;;;;4837738;29;20041;-85
2024/04/02 12:44:44;;;;;;;1.90;0.10;;;16.70;79.10;;;;;;4854993;29;20057;-86
2024/04/02 12:47:11;;;;;;;1.20;0.00;;;16.70;78.60;;;;;;4834949;29;20043;-85
2024/04/02 12:49:41;;;;;;;1.58;0.00;;;16.50;79.70;;;;;;4842657;29;20140;-84
2024/04/02 12:52:08;;;;;;;0.93;0.00;;;16.10;80.10;;;;;;4845209;29;20145;-85
2024/04/02 12:54:38;;;;;;;0.52;0.00;;;16.10;80.50;;;;;;4845065;29;20163;-84
2024/04/02 12:57:05;;;;;;;2.40;0.10;;;16.20;79.50;;;;;;4831717;29;20944;-89
2024/04/02 12:59:33;;;;;;;4.15;0.30;;;16.20;80.20;;;;;;4847789;29;20089;-86
2024/04/02 13:02:00;;;;;;;2.85;0.17;;;16.30;79.60;;;;;;4834190;29;20065;-87
2024/04/02 13:04:27;;;;;;;5.15;2.08;;;16.20;79.00;;;;;;4839923;29;20045;-85